Time;durP1;ratioP1;P1;durP2;ratioP2;P2;SDS_P1;SDS_P2;PMS_P1;PMS_P2;Temp;Humidity;BMP_temperature;BMP_pressure;BME280_temperature;BME280_humidity;BME280_pressure;Samples;Min_cycle;Max_cycle;Signal;HPM_P1;HPM_P2
2019/07/12 00:00:29;;;;;;;12.5;11.3;;;;;;;14.02;96.10254;95092.49;;;;
2019/07/12 00:01:30;;;;;;;12.5;11.3;;;;;;;14.02;96.10254;95092.49;;;;
2019/07/12 00:02:31;;;;;;;12.8;11.4;;;;;;;14.13;96.38184;95086.58;;;;
2019/07/12 00:03:32;;;;;;;12.8;11.4;;;;;;;14.13;96.38184;95086.58;;;;
2019/07/12 00:04:33;;;;;;;12.8;11.4;;;;;;;14.13;96.38184;95086.58;;;;
2019/07/12 00:05:35;;;;;;;12.8;11.4;;;;;;;14.13;96.38184;95086.58;;;;
2019/07/12 00:06:36;;;;;;;12.8;11.4;;;;;;;14.13;96.38184;95086.58;;;;
2019/07/12 00:07:37;;;;;;;12.8;11.4;;;;;;;14.13;96.38184;95086.58;;;;
2019/07/12 00:08:38;;;;;;;12.8;11.4;;;;;;;14.13;96.38184;95086.58;;;;
2019/07/12 00:09:39;;;;;;;12.8;11.4;;;;;;;14.13;96.38184;95086.58;;;;
2019/07/12 00:10:40;;;;;;;12.8;11.4;;;;;;;14.13;96.38184;95086.58;;;;
2019/07/12 00:11:41;;;;;;;12.8;11.4;;;;;;;14.13;96.38184;95086.58;;;;
2019/07/12 00:12:42;;;;;;;13.3;12;;;;;;;14.16;96.53809;95085.1;;;;
2019/07/12 00:13:43;;;;;;;13.3;12;;;;;;;14.16;96.53809;95085.1;;;;
2019/07/12 00:14:45;;;;;;;13.3;12;;;;;;;14.16;96.53809;95085.1;;;;
2019/07/12 00:15:46;;;;;;;13.3;12;;;;;;;14.16;96.53809;95085.1;;;;
2019/07/12 00:16:47;;;;;;;13.3;12;;;;;;;14.16;96.53809;95085.1;;;;
2019/07/12 00:17:48;;;;;;;13.3;12;;;;;;;14.16;96.53809;95085.1;;;;
2019/07/12 00:18:49;;;;;;;13.3;12;;;;;;;14.16;96.53809;95085.1;;;;
2019/07/12 00:19:50;;;;;;;13.3;12;;;;;;;14.16;96.53809;95085.1;;;;
2019/07/12 00:20:51;;;;;;;13.3;12;;;;;;;14.16;96.53809;95085.1;;;;
2019/07/12 00:21:52;;;;;;;13.3;12;;;;;;;14.16;96.53809;95085.1;;;;
2019/07/12 00:22:53;;;;;;;12.65;11.35;;;;;;;14.27;96.82031;95063.33;;;;
2019/07/12 00:23:54;;;;;;;12.65;11.35;;;;;;;14.27;96.82031;95063.33;;;;
2019/07/12 00:24:56;;;;;;;12.65;11.35;;;;;;;14.27;96.82031;95063.33;;;;
2019/07/12 00:25:57;;;;;;;12.65;11.35;;;;;;;14.27;96.82031;95063.33;;;;
2019/07/12 00:26:58;;;;;;;12.65;11.35;;;;;;;14.27;96.82031;95063.33;;;;
2019/07/12 00:27:59;;;;;;;12.65;11.35;;;;;;;14.27;96.82031;95063.33;;;;
2019/07/12 00:29:00;;;;;;;12.65;11.35;;;;;;;14.27;96.82031;95063.33;;;;
2019/07/12 00:30:01;;;;;;;12.65;11.35;;;;;;;14.27;96.82031;95063.33;;;;
2019/07/12 00:31:04;;;;;;;12.65;11.35;;;;;;;14.27;96.82031;95063.33;;;;
2019/07/12 00:32:05;;;;;;;12.65;11.35;;;;;;;14.27;96.82031;95063.33;;;;
2019/07/12 00:33:06;;;;;;;12.65;11.35;;;;;;;14.27;96.82031;95063.33;;;;
2019/07/12 00:34:07;;;;;;;13.9;12.45;;;;;;;14.28;97.04785;95053.7;;;;
2019/07/12 00:35:08;;;;;;;13.9;12.45;;;;;;;14.28;97.04785;95053.7;;;;
2019/07/12 00:36:09;;;;;;;13.9;12.45;;;;;;;14.28;97.04785;95053.7;;;;
2019/07/12 00:37:11;;;;;;;13.9;12.45;;;;;;;14.28;97.04785;95053.7;;;;
2019/07/12 00:38:12;;;;;;;13.9;12.45;;;;;;;14.28;97.04785;95053.7;;;;
2019/07/12 00:39:13;;;;;;;13.9;12.45;;;;;;;14.28;97.04785;95053.7;;;;
2019/07/12 00:40:14;;;;;;;13.9;12.45;;;;;;;14.28;97.04785;95053.7;;;;
2019/07/12 00:41:15;;;;;;;13.9;12.45;;;;;;;14.28;97.04785;95053.7;;;;
2019/07/12 00:42:16;;;;;;;13.9;12.45;;;;;;;14.28;97.04785;95053.7;;;;
2019/07/12 00:43:18;;;;;;;13.9;12.45;;;;;;;14.28;97.04785;95053.7;;;;
2019/07/12 00:44:19;;;;;;;13.05;11.7;;;;;;;14.3;97.33203;95052.34;;;;
2019/07/12 00:45:20;;;;;;;13.05;11.7;;;;;;;14.3;97.33203;95052.34;;;;
2019/07/12 00:46:21;;;;;;;13.05;11.7;;;;;;;14.3;97.33203;95052.34;;;;
2019/07/12 00:47:22;;;;;;;13.05;11.7;;;;;;;14.3;97.33203;95052.34;;;;
2019/07/12 00:48:23;;;;;;;13.05;11.7;;;;;;;14.3;97.33203;95052.34;;;;
2019/07/12 00:49:24;;;;;;;13.05;11.7;;;;;;;14.3;97.33203;95052.34;;;;
2019/07/12 00:50:26;;;;;;;13.05;11.7;;;;;;;14.3;97.33203;95052.34;;;;
2019/07/12 00:51:27;;;;;;;13.05;11.7;;;;;;;14.3;97.33203;95052.34;;;;
2019/07/12 00:52:28;;;;;;;13.05;11.7;;;;;;;14.3;97.33203;95052.34;;;;
2019/07/12 00:53:29;;;;;;;13.05;11.7;;;;;;;14.3;97.33203;95052.34;;;;
2019/07/12 00:54:31;;;;;;;14.45;12.95;;;;;;;14.27;97.61328;95047.97;;;;
2019/07/12 00:55:32;;;;;;;14.45;12.95;;;;;;;14.27;97.61328;95047.97;;;;
2019/07/12 00:56:33;;;;;;;14.45;12.95;;;;;;;14.27;97.61328;95047.97;;;;
2019/07/12 00:57:34;;;;;;;14.45;12.95;;;;;;;14.27;97.61328;95047.97;;;;
2019/07/12 00:58:35;;;;;;;14.45;12.95;;;;;;;14.27;97.61328;95047.97;;;;
2019/07/12 00:59:36;;;;;;;14.45;12.95;;;;;;;14.27;97.61328;95047.97;;;;
2019/07/12 01:00:38;;;;;;;14.45;12.95;;;;;;;14.27;97.61328;95047.97;;;;
2019/07/12 01:01:55;;;;;;;14.45;12.95;;;;;;;14.27;97.61328;95047.97;;;;
2019/07/12 01:02:56;;;;;;;14.45;12.95;;;;;;;14.27;97.61328;95047.97;;;;
2019/07/12 01:03:57;;;;;;;14.45;12.95;;;;;;;14.27;97.61328;95047.97;;;;
2019/07/12 01:04:58;;;;;;;14.45;12.95;;;;;;;14.27;97.61328;95047.97;;;;
2019/07/12 01:06:00;;;;;;;13.65;12.25;;;;;;;14.32;98.12988;95051.95;;;;
2019/07/12 01:07:01;;;;;;;13.65;12.25;;;;;;;14.32;98.12988;95051.95;;;;
2019/07/12 01:08:02;;;;;;;13.65;12.25;;;;;;;14.32;98.12988;95051.95;;;;
2019/07/12 01:09:03;;;;;;;13.65;12.25;;;;;;;14.32;98.12988;95051.95;;;;
2019/07/12 01:10:05;;;;;;;13.65;12.25;;;;;;;14.32;98.12988;95051.95;;;;
2019/07/12 01:11:07;;;;;;;13.65;12.25;;;;;;;14.32;98.12988;95051.95;;;;
2019/07/12 01:12:09;;;;;;;13.65;12.25;;;;;;;14.32;98.12988;95051.95;;;;
2019/07/12 01:13:10;;;;;;;13.65;12.25;;;;;;;14.32;98.12988;95051.95;;;;
2019/07/12 01:14:11;;;;;;;13.65;12.25;;;;;;;14.32;98.12988;95051.95;;;;
2019/07/12 01:15:12;;;;;;;13.65;12.25;;;;;;;14.32;98.12988;95051.95;;;;
2019/07/12 01:16:22;;;;;;;13.05;11.8;;;;;;;14.33;98.15332;95041.91;;;;
2019/07/12 01:17:23;;;;;;;13.05;11.8;;;;;;;14.33;98.15332;95041.91;;;;
2019/07/12 01:18:24;;;;;;;13.05;11.8;;;;;;;14.33;98.15332;95041.91;;;;
2019/07/12 01:19:25;;;;;;;13.05;11.8;;;;;;;14.33;98.15332;95041.91;;;;
2019/07/12 01:20:26;;;;;;;13.05;11.8;;;;;;;14.33;98.15332;95041.91;;;;
2019/07/12 01:21:28;;;;;;;13.05;11.8;;;;;;;14.33;98.15332;95041.91;;;;
2019/07/12 01:22:29;;;;;;;13.05;11.8;;;;;;;14.33;98.15332;95041.91;;;;
2019/07/12 01:23:30;;;;;;;13.05;11.8;;;;;;;14.33;98.15332;95041.91;;;;
2019/07/12 01:24:32;;;;;;;13.05;11.8;;;;;;;14.33;98.15332;95041.91;;;;
2019/07/12 01:25:33;;;;;;;13.05;11.8;;;;;;;14.33;98.15332;95041.91;;;;
2019/07/12 01:26:35;;;;;;;13.05;11.75;;;;;;;14.36;98.35254;95038.12;;;;
2019/07/12 01:27:36;;;;;;;13.05;11.75;;;;;;;14.36;98.35254;95038.12;;;;
2019/07/12 01:28:37;;;;;;;13.05;11.75;;;;;;;14.36;98.35254;95038.12;;;;
2019/07/12 01:29:38;;;;;;;13.05;11.75;;;;;;;14.36;98.35254;95038.12;;;;
2019/07/12 01:30:39;;;;;;;13.05;11.75;;;;;;;14.36;98.35254;95038.12;;;;
2019/07/12 01:31:40;;;;;;;13.05;11.75;;;;;;;14.36;98.35254;95038.12;;;;
2019/07/12 01:32:42;;;;;;;13.05;11.75;;;;;;;14.36;98.35254;95038.12;;;;
2019/07/12 01:33:43;;;;;;;13.05;11.75;;;;;;;14.36;98.35254;95038.12;;;;
2019/07/12 01:34:44;;;;;;;13.05;11.75;;;;;;;14.36;98.35254;95038.12;;;;
2019/07/12 01:35:45;;;;;;;13.05;11.75;;;;;;;14.36;98.35254;95038.12;;;;
2019/07/12 01:36:46;;;;;;;13.05;11.75;;;;;;;14.36;98.35254;95038.12;;;;
2019/07/12 01:37:48;;;;;;;12.45;11.25;;;;;;;14.31;98.60742;95026.42;;;;
2019/07/12 01:38:49;;;;;;;12.45;11.25;;;;;;;14.31;98.60742;95026.42;;;;
2019/07/12 01:39:50;;;;;;;12.45;11.25;;;;;;;14.31;98.60742;95026.42;;;;
2019/07/12 01:40:51;;;;;;;12.45;11.25;;;;;;;14.31;98.60742;95026.42;;;;
2019/07/12 01:41:52;;;;;;;12.45;11.25;;;;;;;14.31;98.60742;95026.42;;;;
2019/07/12 01:42:53;;;;;;;12.45;11.25;;;;;;;14.31;98.60742;95026.42;;;;
2019/07/12 01:43:54;;;;;;;12.45;11.25;;;;;;;14.31;98.60742;95026.42;;;;
2019/07/12 01:44:56;;;;;;;12.45;11.25;;;;;;;14.31;98.60742;95026.42;;;;
2019/07/12 01:45:57;;;;;;;12.45;11.25;;;;;;;14.31;98.60742;95026.42;;;;
2019/07/12 01:46:58;;;;;;;12.45;11.25;;;;;;;14.31;98.60742;95026.42;;;;
2019/07/12 01:47:59;;;;;;;13.25;10.85;;;;;;;14.32;98.92285;95025.73;;;;
2019/07/12 01:49:00;;;;;;;13.25;10.85;;;;;;;14.32;98.92285;95025.73;;;;
2019/07/12 01:50:01;;;;;;;13.25;10.85;;;;;;;14.32;98.92285;95025.73;;;;
2019/07/12 01:51:03;;;;;;;13.25;10.85;;;;;;;14.32;98.92285;95025.73;;;;
2019/07/12 01:52:04;;;;;;;13.25;10.85;;;;;;;14.32;98.92285;95025.73;;;;
2019/07/12 01:53:06;;;;;;;13.25;10.85;;;;;;;14.32;98.92285;95025.73;;;;
2019/07/12 01:54:07;;;;;;;13.25;10.85;;;;;;;14.32;98.92285;95025.73;;;;
2019/07/12 01:55:08;;;;;;;13.25;10.85;;;;;;;14.32;98.92285;95025.73;;;;
2019/07/12 01:56:10;;;;;;;13.25;10.85;;;;;;;14.32;98.92285;95025.73;;;;
2019/07/12 01:57:12;;;;;;;13.25;10.85;;;;;;;14.32;98.92285;95025.73;;;;
2019/07/12 01:58:13;;;;;;;12.6;11.35;;;;;;;14.27;99.0918;95023.94;;;;
2019/07/12 01:59:14;;;;;;;12.6;11.35;;;;;;;14.27;99.0918;95023.94;;;;
2019/07/12 02:00:15;;;;;;;12.6;11.35;;;;;;;14.27;99.0918;95023.94;;;;
2019/07/12 02:01:19;;;;;;;12.6;11.35;;;;;;;14.27;99.0918;95023.94;;;;
2019/07/12 02:02:30;;;;;;;12.6;11.35;;;;;;;14.27;99.0918;95023.94;;;;
2019/07/12 02:03:31;;;;;;;12.6;11.35;;;;;;;14.27;99.0918;95023.94;;;;
2019/07/12 02:04:33;;;;;;;12.6;11.35;;;;;;;14.27;99.0918;95023.94;;;;
2019/07/12 02:05:34;;;;;;;12.6;11.35;;;;;;;14.27;99.0918;95023.94;;;;
2019/07/12 02:06:35;;;;;;;12.6;11.35;;;;;;;14.27;99.0918;95023.94;;;;
2019/07/12 02:07:36;;;;;;;12.6;11.35;;;;;;;14.27;99.0918;95023.94;;;;
2019/07/12 02:08:37;;;;;;;12.6;11.35;;;;;;;14.27;99.0918;95023.94;;;;
2019/07/12 02:09:39;;;;;;;11.3;10.15;;;;;;;14.3;99.39844;95022.08;;;;
2019/07/12 02:10:40;;;;;;;11.3;10.15;;;;;;;14.3;99.39844;95022.08;;;;
2019/07/12 02:11:41;;;;;;;11.3;10.15;;;;;;;14.3;99.39844;95022.08;;;;
2019/07/12 02:12:42;;;;;;;11.3;10.15;;;;;;;14.3;99.39844;95022.08;;;;
2019/07/12 02:13:43;;;;;;;11.3;10.15;;;;;;;14.3;99.39844;95022.08;;;;
2019/07/12 02:14:44;;;;;;;11.3;10.15;;;;;;;14.3;99.39844;95022.08;;;;
2019/07/12 02:15:46;;;;;;;11.3;10.15;;;;;;;14.3;99.39844;95022.08;;;;
2019/07/12 02:16:47;;;;;;;11.3;10.15;;;;;;;14.3;99.39844;95022.08;;;;
2019/07/12 02:17:48;;;;;;;11.3;10.15;;;;;;;14.3;99.39844;95022.08;;;;
2019/07/12 02:18:49;;;;;;;11.3;10.15;;;;;;;14.3;99.39844;95022.08;;;;
2019/07/12 02:19:51;;;;;;;12.35;11.1;;;;;;;14.31;99.54004;95017.85;;;;
2019/07/12 02:20:52;;;;;;;12.35;11.1;;;;;;;14.31;99.54004;95017.85;;;;
2019/07/12 02:21:53;;;;;;;12.35;11.1;;;;;;;14.31;99.54004;95017.85;;;;
2019/07/12 02:22:54;;;;;;;12.35;11.1;;;;;;;14.31;99.54004;95017.85;;;;
2019/07/12 02:23:55;;;;;;;12.35;11.1;;;;;;;14.31;99.54004;95017.85;;;;
2019/07/12 02:24:57;;;;;;;12.35;11.1;;;;;;;14.31;99.54004;95017.85;;;;
2019/07/12 02:25:58;;;;;;;12.35;11.1;;;;;;;14.31;99.54004;95017.85;;;;
2019/07/12 02:26:59;;;;;;;12.35;11.1;;;;;;;14.31;99.54004;95017.85;;;;
2019/07/12 02:28:00;;;;;;;12.35;11.1;;;;;;;14.31;99.54004;95017.85;;;;
2019/07/12 02:29:01;;;;;;;12.35;11.1;;;;;;;14.31;99.54004;95017.85;;;;
2019/07/12 02:30:02;;;;;;;11.9;10.7;;;;;;;14.37;99.76855;95016.27;;;;
2019/07/12 02:31:04;;;;;;;11.9;10.7;;;;;;;14.37;99.76855;95016.27;;;;
2019/07/12 02:32:05;;;;;;;11.9;10.7;;;;;;;14.37;99.76855;95016.27;;;;
2019/07/12 02:33:06;;;;;;;11.9;10.7;;;;;;;14.37;99.76855;95016.27;;;;
2019/07/12 02:34:08;;;;;;;11.9;10.7;;;;;;;14.37;99.76855;95016.27;;;;
2019/07/12 02:35:09;;;;;;;11.9;10.7;;;;;;;14.37;99.76855;95016.27;;;;
2019/07/12 02:36:10;;;;;;;11.9;10.7;;;;;;;14.37;99.76855;95016.27;;;;
2019/07/12 02:37:12;;;;;;;11.9;10.7;;;;;;;14.37;99.76855;95016.27;;;;
2019/07/12 02:38:13;;;;;;;11.9;10.7;;;;;;;14.37;99.76855;95016.27;;;;
2019/07/12 02:39:14;;;;;;;11.9;10.7;;;;;;;14.37;99.76855;95016.27;;;;
2019/07/12 02:40:15;;;;;;;11.9;10.7;;;;;;;14.37;99.76855;95016.27;;;;
2019/07/12 02:41:17;;;;;;;11.25;10.05;;;;;;;14.34;99.91016;95007.84;;;;
2019/07/12 02:42:18;;;;;;;11.25;10.05;;;;;;;14.34;99.91016;95007.84;;;;
2019/07/12 02:43:19;;;;;;;11.25;10.05;;;;;;;14.34;99.91016;95007.84;;;;
2019/07/12 02:44:20;;;;;;;11.25;10.05;;;;;;;14.34;99.91016;95007.84;;;;
2019/07/12 02:45:21;;;;;;;11.25;10.05;;;;;;;14.34;99.91016;95007.84;;;;
2019/07/12 02:46:23;;;;;;;11.25;10.05;;;;;;;14.34;99.91016;95007.84;;;;
2019/07/12 02:47:24;;;;;;;11.25;10.05;;;;;;;14.34;99.91016;95007.84;;;;
2019/07/12 02:48:25;;;;;;;11.25;10.05;;;;;;;14.34;99.91016;95007.84;;;;
2019/07/12 02:49:27;;;;;;;11.25;10.05;;;;;;;14.34;99.91016;95007.84;;;;
2019/07/12 02:50:28;;;;;;;11.25;10.05;;;;;;;14.34;99.91016;95007.84;;;;
2019/07/12 02:51:29;;;;;;;10.4;9.399999;;;;;;;14.36;100;95010.13;;;;
2019/07/12 02:52:30;;;;;;;10.4;9.399999;;;;;;;14.36;100;95010.13;;;;
2019/07/12 02:53:31;;;;;;;10.4;9.399999;;;;;;;14.36;100;95010.13;;;;
2019/07/12 02:54:32;;;;;;;10.4;9.399999;;;;;;;14.36;100;95010.13;;;;
2019/07/12 02:55:33;;;;;;;10.4;9.399999;;;;;;;14.36;100;95010.13;;;;
2019/07/12 02:56:34;;;;;;;10.4;9.399999;;;;;;;14.36;100;95010.13;;;;
2019/07/12 02:57:36;;;;;;;10.4;9.399999;;;;;;;14.36;100;95010.13;;;;
2019/07/12 02:58:37;;;;;;;10.4;9.399999;;;;;;;14.36;100;95010.13;;;;
2019/07/12 02:59:38;;;;;;;10.4;9.399999;;;;;;;14.36;100;95010.13;;;;
2019/07/12 03:00:39;;;;;;;10.4;9.399999;;;;;;;14.36;100;95010.13;;;;
2019/07/12 03:01:40;;;;;;;10.5;9.6;;;;;;;14.34;100;95008.22;;;;
2019/07/12 03:02:41;;;;;;;10.5;9.6;;;;;;;14.34;100;95008.22;;;;
2019/07/12 03:03:42;;;;;;;10.5;9.6;;;;;;;14.34;100;95008.22;;;;
2019/07/12 03:04:43;;;;;;;10.5;9.6;;;;;;;14.34;100;95008.22;;;;
2019/07/12 03:05:44;;;;;;;10.5;9.6;;;;;;;14.34;100;95008.22;;;;
2019/07/12 03:06:45;;;;;;;10.5;9.6;;;;;;;14.34;100;95008.22;;;;
2019/07/12 03:07:46;;;;;;;10.5;9.6;;;;;;;14.34;100;95008.22;;;;
2019/07/12 03:08:48;;;;;;;10.5;9.6;;;;;;;14.34;100;95008.22;;;;
2019/07/12 03:09:49;;;;;;;10.5;9.6;;;;;;;14.34;100;95008.22;;;;
2019/07/12 03:10:50;;;;;;;10.5;9.6;;;;;;;14.34;100;95008.22;;;;
2019/07/12 03:11:51;;;;;;;10.5;9.6;;;;;;;14.34;100;95008.22;;;;
2019/07/12 03:12:52;;;;;;;9.650002;8.650001;;;;;;;14.39;100;95011.36;;;;
2019/07/12 03:13:53;;;;;;;9.650002;8.650001;;;;;;;14.39;100;95011.36;;;;
2019/07/12 03:14:54;;;;;;;9.650002;8.650001;;;;;;;14.39;100;95011.36;;;;
2019/07/12 03:15:55;;;;;;;9.650002;8.650001;;;;;;;14.39;100;95011.36;;;;
2019/07/12 03:16:56;;;;;;;9.650002;8.650001;;;;;;;14.39;100;95011.36;;;;
2019/07/12 03:17:58;;;;;;;9.650002;8.650001;;;;;;;14.39;100;95011.36;;;;
2019/07/12 03:18:59;;;;;;;9.650002;8.650001;;;;;;;14.39;100;95011.36;;;;
2019/07/12 03:20:00;;;;;;;9.650002;8.650001;;;;;;;14.39;100;95011.36;;;;
2019/07/12 03:21:01;;;;;;;9.650002;8.650001;;;;;;;14.39;100;95011.36;;;;
2019/07/12 03:22:02;;;;;;;9.650002;8.650001;;;;;;;14.39;100;95011.36;;;;
2019/07/12 03:23:03;;;;;;;8.950002;8.050001;;;;;;;14.36;100;95015.03;;;;
2019/07/12 03:24:05;;;;;;;8.950002;8.050001;;;;;;;14.36;100;95015.03;;;;
2019/07/12 03:25:06;;;;;;;8.950002;8.050001;;;;;;;14.36;100;95015.03;;;;
2019/07/12 03:26:07;;;;;;;8.950002;8.050001;;;;;;;14.36;100;95015.03;;;;
2019/07/12 03:27:08;;;;;;;8.950002;8.050001;;;;;;;14.36;100;95015.03;;;;
2019/07/12 03:28:09;;;;;;;8.950002;8.050001;;;;;;;14.36;100;95015.03;;;;
2019/07/12 03:29:10;;;;;;;8.950002;8.050001;;;;;;;14.36;100;95015.03;;;;
2019/07/12 03:30:11;;;;;;;8.950002;8.050001;;;;;;;14.36;100;95015.03;;;;
2019/07/12 03:31:13;;;;;;;8.950002;8.050001;;;;;;;14.36;100;95015.03;;;;
2019/07/12 03:32:14;;;;;;;8.950002;8.050001;;;;;;;14.36;100;95015.03;;;;
2019/07/12 03:33:15;;;;;;;8.950002;8.050001;;;;;;;14.36;100;95015.03;;;;
2019/07/12 03:34:16;;;;;;;8.649999;7.849999;;;;;;;14.4;100;95028.9;;;;
2019/07/12 03:35:17;;;;;;;8.649999;7.849999;;;;;;;14.4;100;95028.9;;;;
2019/07/12 03:36:19;;;;;;;8.649999;7.849999;;;;;;;14.4;100;95028.9;;;;
2019/07/12 03:37:20;;;;;;;8.649999;7.849999;;;;;;;14.4;100;95028.9;;;;
2019/07/12 03:38:21;;;;;;;8.649999;7.849999;;;;;;;14.4;100;95028.9;;;;
2019/07/12 03:39:22;;;;;;;8.649999;7.849999;;;;;;;14.4;100;95028.9;;;;
2019/07/12 03:40:23;;;;;;;8.649999;7.849999;;;;;;;14.4;100;95028.9;;;;
2019/07/12 03:41:24;;;;;;;8.649999;7.849999;;;;;;;14.4;100;95028.9;;;;
2019/07/12 03:42:25;;;;;;;8.649999;7.849999;;;;;;;14.4;100;95028.9;;;;
2019/07/12 03:43:26;;;;;;;8.649999;7.849999;;;;;;;14.4;100;95028.9;;;;
2019/07/12 03:44:27;;;;;;;9.899999;8.15;;;;;;;14.38;100;95019.25;;;;
2019/07/12 03:45:29;;;;;;;9.899999;8.15;;;;;;;14.38;100;95019.25;;;;
2019/07/12 03:46:30;;;;;;;9.899999;8.15;;;;;;;14.38;100;95019.25;;;;
2019/07/12 03:47:31;;;;;;;9.899999;8.15;;;;;;;14.38;100;95019.25;;;;
2019/07/12 03:48:32;;;;;;;9.899999;8.15;;;;;;;14.38;100;95019.25;;;;
2019/07/12 03:49:33;;;;;;;9.899999;8.15;;;;;;;14.38;100;95019.25;;;;
2019/07/12 03:50:34;;;;;;;9.899999;8.15;;;;;;;14.38;100;95019.25;;;;
2019/07/12 03:51:35;;;;;;;9.899999;8.15;;;;;;;14.38;100;95019.25;;;;
2019/07/12 03:52:36;;;;;;;9.899999;8.15;;;;;;;14.38;100;95019.25;;;;
2019/07/12 03:53:37;;;;;;;9.899999;8.15;;;;;;;14.38;100;95019.25;;;;
2019/07/12 03:54:38;;;;;;;8.950001;8.200001;;;;;;;14.4;100;95022.94;;;;
2019/07/12 03:55:40;;;;;;;8.950001;8.200001;;;;;;;14.4;100;95022.94;;;;
2019/07/12 03:56:41;;;;;;;8.950001;8.200001;;;;;;;14.4;100;95022.94;;;;
2019/07/12 03:57:42;;;;;;;8.950001;8.200001;;;;;;;14.4;100;95022.94;;;;
2019/07/12 03:58:43;;;;;;;8.950001;8.200001;;;;;;;14.4;100;95022.94;;;;
2019/07/12 03:59:44;;;;;;;8.950001;8.200001;;;;;;;14.4;100;95022.94;;;;
2019/07/12 04:00:45;;;;;;;8.950001;8.200001;;;;;;;14.4;100;95022.94;;;;
2019/07/12 04:01:46;;;;;;;8.950001;8.200001;;;;;;;14.4;100;95022.94;;;;
2019/07/12 04:02:47;;;;;;;8.950001;8.200001;;;;;;;14.4;100;95022.94;;;;
2019/07/12 04:03:48;;;;;;;8.950001;8.200001;;;;;;;14.4;100;95022.94;;;;
2019/07/12 04:04:49;;;;;;;8.950001;8.200001;;;;;;;14.4;100;95022.94;;;;
2019/07/12 04:05:50;;;;;;;8.899999;7.45;;;;;;;14.39;100;95038.94;;;;
2019/07/12 04:06:51;;;;;;;8.899999;7.45;;;;;;;14.39;100;95038.94;;;;
2019/07/12 04:07:52;;;;;;;8.899999;7.45;;;;;;;14.39;100;95038.94;;;;
2019/07/12 04:08:54;;;;;;;8.899999;7.45;;;;;;;14.39;100;95038.94;;;;
2019/07/12 04:09:55;;;;;;;8.899999;7.45;;;;;;;14.39;100;95038.94;;;;
2019/07/12 04:10:56;;;;;;;8.899999;7.45;;;;;;;14.39;100;95038.94;;;;
2019/07/12 04:11:57;;;;;;;8.899999;7.45;;;;;;;14.39;100;95038.94;;;;
2019/07/12 04:12:58;;;;;;;8.899999;7.45;;;;;;;14.39;100;95038.94;;;;
2019/07/12 04:13:59;;;;;;;8.899999;7.45;;;;;;;14.39;100;95038.94;;;;
2019/07/12 04:15:00;;;;;;;8.899999;7.45;;;;;;;14.39;100;95038.94;;;;
2019/07/12 04:16:03;;;;;;;8.549999;7.75;;;;;;;14.53;100;95040.23;;;;
2019/07/12 04:17:04;;;;;;;8.549999;7.75;;;;;;;14.53;100;95040.23;;;;
2019/07/12 04:18:05;;;;;;;8.549999;7.75;;;;;;;14.53;100;95040.23;;;;
2019/07/12 04:19:06;;;;;;;8.549999;7.75;;;;;;;14.53;100;95040.23;;;;
2019/07/12 04:20:07;;;;;;;8.549999;7.75;;;;;;;14.53;100;95040.23;;;;
2019/07/12 04:21:09;;;;;;;8.549999;7.75;;;;;;;14.53;100;95040.23;;;;
2019/07/12 04:22:10;;;;;;;8.549999;7.75;;;;;;;14.53;100;95040.23;;;;
2019/07/12 04:23:11;;;;;;;8.549999;7.75;;;;;;;14.53;100;95040.23;;;;
2019/07/12 04:24:12;;;;;;;8.549999;7.75;;;;;;;14.53;100;95040.23;;;;
2019/07/12 04:25:14;;;;;;;8.549999;7.75;;;;;;;14.53;100;95040.23;;;;
2019/07/12 04:26:15;;;;;;;8.549999;7.75;;;;;;;14.53;100;95040.23;;;;
2019/07/12 04:27:16;;;;;;;7.799999;7.1;;;;;;;14.6;100;95044.34;;;;
2019/07/12 04:28:17;;;;;;;7.799999;7.1;;;;;;;14.6;100;95044.34;;;;
2019/07/12 04:29:18;;;;;;;7.799999;7.1;;;;;;;14.6;100;95044.34;;;;
2019/07/12 04:30:19;;;;;;;7.799999;7.1;;;;;;;14.6;100;95044.34;;;;
2019/07/12 04:31:20;;;;;;;7.799999;7.1;;;;;;;14.6;100;95044.34;;;;
2019/07/12 04:32:22;;;;;;;7.799999;7.1;;;;;;;14.6;100;95044.34;;;;
2019/07/12 04:33:23;;;;;;;7.799999;7.1;;;;;;;14.6;100;95044.34;;;;
2019/07/12 04:34:24;;;;;;;7.799999;7.1;;;;;;;14.6;100;95044.34;;;;
2019/07/12 04:35:25;;;;;;;7.799999;7.1;;;;;;;14.6;100;95044.34;;;;
2019/07/12 04:36:26;;;;;;;7.799999;7.1;;;;;;;14.6;100;95044.34;;;;
2019/07/12 04:37:27;;;;;;;8.349999;6.95;;;;;;;14.75;100;95055.24;;;;
2019/07/12 04:38:28;;;;;;;8.349999;6.95;;;;;;;14.75;100;95055.24;;;;
2019/07/12 04:39:29;;;;;;;8.349999;6.95;;;;;;;14.75;100;95055.24;;;;
2019/07/12 04:40:30;;;;;;;8.349999;6.95;;;;;;;14.75;100;95055.24;;;;
2019/07/12 04:41:31;;;;;;;8.349999;6.95;;;;;;;14.75;100;95055.24;;;;
2019/07/12 04:42:32;;;;;;;8.349999;6.95;;;;;;;14.75;100;95055.24;;;;
2019/07/12 04:43:33;;;;;;;8.349999;6.95;;;;;;;14.75;100;95055.24;;;;
2019/07/12 04:44:35;;;;;;;8.349999;6.95;;;;;;;14.75;100;95055.24;;;;
2019/07/12 04:45:36;;;;;;;8.349999;6.95;;;;;;;14.75;100;95055.24;;;;
2019/07/12 04:46:37;;;;;;;8.349999;6.95;;;;;;;14.75;100;95055.24;;;;
2019/07/12 04:47:38;;;;;;;6.65;5.95;;;;;;;14.84;100;95049.14;;;;
2019/07/12 04:48:39;;;;;;;6.65;5.95;;;;;;;14.84;100;95049.14;;;;
2019/07/12 04:49:40;;;;;;;6.65;5.95;;;;;;;14.84;100;95049.14;;;;
2019/07/12 04:50:41;;;;;;;6.65;5.95;;;;;;;14.84;100;95049.14;;;;
2019/07/12 04:51:43;;;;;;;6.65;5.95;;;;;;;14.84;100;95049.14;;;;
2019/07/12 04:52:44;;;;;;;6.65;5.95;;;;;;;14.84;100;95049.14;;;;
2019/07/12 04:53:45;;;;;;;6.65;5.95;;;;;;;14.84;100;95049.14;;;;
2019/07/12 04:54:46;;;;;;;6.65;5.95;;;;;;;14.84;100;95049.14;;;;
2019/07/12 04:55:47;;;;;;;6.65;5.95;;;;;;;14.84;100;95049.14;;;;
2019/07/12 04:56:48;;;;;;;6.65;5.95;;;;;;;14.84;100;95049.14;;;;
2019/07/12 04:57:49;;;;;;;6.65;5.95;;;;;;;14.84;100;95049.14;;;;
2019/07/12 04:58:50;;;;;;;6.199999;5.600001;;;;;;;15.07;100;95043.77;;;;
2019/07/12 04:59:51;;;;;;;6.199999;5.600001;;;;;;;15.07;100;95043.77;;;;
2019/07/12 05:00:52;;;;;;;6.199999;5.600001;;;;;;;15.07;100;95043.77;;;;
2019/07/12 05:01:54;;;;;;;6.199999;5.600001;;;;;;;15.07;100;95043.77;;;;
2019/07/12 05:02:55;;;;;;;6.199999;5.600001;;;;;;;15.07;100;95043.77;;;;
2019/07/12 05:03:56;;;;;;;6.199999;5.600001;;;;;;;15.07;100;95043.77;;;;
2019/07/12 05:04:57;;;;;;;6.199999;5.600001;;;;;;;15.07;100;95043.77;;;;
2019/07/12 05:05:58;;;;;;;6.199999;5.600001;;;;;;;15.07;100;95043.77;;;;
2019/07/12 05:06:59;;;;;;;6.199999;5.600001;;;;;;;15.07;100;95043.77;;;;
2019/07/12 05:08:00;;;;;;;6.199999;5.600001;;;;;;;15.07;100;95043.77;;;;
2019/07/12 05:09:02;;;;;;;7.149999;5.400001;;;;;;;15.26;100;95035.36;;;;
2019/07/12 05:10:03;;;;;;;7.149999;5.400001;;;;;;;15.26;100;95035.36;;;;
2019/07/12 05:11:06;;;;;;;7.149999;5.400001;;;;;;;15.26;100;95035.36;;;;
2019/07/12 05:12:07;;;;;;;7.149999;5.400001;;;;;;;15.26;100;95035.36;;;;
2019/07/12 05:13:08;;;;;;;7.149999;5.400001;;;;;;;15.26;100;95035.36;;;;
2019/07/12 05:14:09;;;;;;;7.149999;5.400001;;;;;;;15.26;100;95035.36;;;;
2019/07/12 05:15:10;;;;;;;7.149999;5.400001;;;;;;;15.26;100;95035.36;;;;
2019/07/12 05:16:11;;;;;;;7.149999;5.400001;;;;;;;15.26;100;95035.36;;;;
2019/07/12 05:17:12;;;;;;;7.149999;5.400001;;;;;;;15.26;100;95035.36;;;;
2019/07/12 05:18:14;;;;;;;7.149999;5.400001;;;;;;;15.26;100;95035.36;;;;
2019/07/12 05:19:15;;;;;;;7.149999;5.400001;;;;;;;15.26;100;95035.36;;;;
2019/07/12 05:20:16;;;;;;;5.3;4.849999;;;;;;;15.55;100;95036.08;;;;
2019/07/12 05:21:17;;;;;;;5.3;4.849999;;;;;;;15.55;100;95036.08;;;;
2019/07/12 05:22:18;;;;;;;5.3;4.849999;;;;;;;15.55;100;95036.08;;;;
2019/07/12 05:23:19;;;;;;;5.3;4.849999;;;;;;;15.55;100;95036.08;;;;
2019/07/12 05:24:20;;;;;;;5.3;4.849999;;;;;;;15.55;100;95036.08;;;;
2019/07/12 05:25:22;;;;;;;5.3;4.849999;;;;;;;15.55;100;95036.08;;;;
2019/07/12 05:26:23;;;;;;;5.3;4.849999;;;;;;;15.55;100;95036.08;;;;
2019/07/12 05:27:24;;;;;;;5.3;4.849999;;;;;;;15.55;100;95036.08;;;;
2019/07/12 05:28:25;;;;;;;5.3;4.849999;;;;;;;15.55;100;95036.08;;;;
2019/07/12 05:29:26;;;;;;;5.3;4.849999;;;;;;;15.55;100;95036.08;;;;
2019/07/12 05:30:27;;;;;;;5.799999;5.1;;;;;;;15.98;100;95033.59;;;;
2019/07/12 05:31:28;;;;;;;5.799999;5.1;;;;;;;15.98;100;95033.59;;;;
2019/07/12 05:32:29;;;;;;;5.799999;5.1;;;;;;;15.98;100;95033.59;;;;
2019/07/12 05:33:30;;;;;;;5.799999;5.1;;;;;;;15.98;100;95033.59;;;;
2019/07/12 05:34:32;;;;;;;5.799999;5.1;;;;;;;15.98;100;95033.59;;;;
2019/07/12 05:35:33;;;;;;;5.799999;5.1;;;;;;;15.98;100;95033.59;;;;
2019/07/12 05:36:34;;;;;;;5.799999;5.1;;;;;;;15.98;100;95033.59;;;;
2019/07/12 05:37:35;;;;;;;5.799999;5.1;;;;;;;15.98;100;95033.59;;;;
2019/07/12 05:38:36;;;;;;;5.799999;5.1;;;;;;;15.98;100;95033.59;;;;
2019/07/12 05:39:37;;;;;;;5.799999;5.1;;;;;;;15.98;100;95033.59;;;;
2019/07/12 05:40:38;;;;;;;5.799999;5.1;;;;;;;15.98;100;95033.59;;;;
2019/07/12 05:41:39;;;;;;;5.45;4.25;;;;;;;16.62;99.89746;95026.48;;;;
2019/07/12 05:42:41;;;;;;;5.45;4.25;;;;;;;16.62;99.89746;95026.48;;;;
2019/07/12 05:43:42;;;;;;;5.45;4.25;;;;;;;16.62;99.89746;95026.48;;;;
2019/07/12 05:44:43;;;;;;;5.45;4.25;;;;;;;16.62;99.89746;95026.48;;;;
2019/07/12 05:45:44;;;;;;;5.45;4.25;;;;;;;16.62;99.89746;95026.48;;;;